sensor_id;sensor_type;location;lat;lon;timestamp;P1;durP1;ratioP1;P2;durP2;ratioP2
7239;SDS011;3661;53.288;10.458;2023-07-30T00:00:21;1847.43;;;999.90;;
7239;SDS011;3661;53.288;10.458;2023-07-30T00:02:54;1849.07;;;999.90;;
7239;SDS011;3661;53.288;10.458;2023-07-30T00:05:26;1851.13;;;999.90;;
7239;SDS011;3661;53.288;10.458;2023-07-30T00:07:59;1847.43;;;999.90;;
7239;SDS011;3661;53.288;10.458;2023-07-30T00:10:32;1853.00;;;999.90;;
7239;SDS011;3661;53.288;10.458;2023-07-30T00:13:04;1831.57;;;999.90;;
7239;SDS011;3661;53.288;10.458;2023-07-30T00:15:36;1839.30;;;999.90;;
7239;SDS011;3661;53.288;10.458;2023-07-30T00:18:08;1819.85;;;999.90;;
7239;SDS011;3661;53.288;10.458;2023-07-30T00:20:40;1851.25;;;999.90;;
7239;SDS011;3661;53.288;10.458;2023-07-30T00:23:14;1866.00;;;999.90;;
7239;SDS011;3661;53.288;10.458;2023-07-30T00:25:46;1841.28;;;999.90;;
7239;SDS011;3661;53.288;10.458;2023-07-30T00:28:18;1836.10;;;999.90;;
7239;SDS011;3661;53.288;10.458;2023-07-30T00:30:50;1822.35;;;999.90;;
7239;SDS011;3661;53.288;10.458;2023-07-30T00:33:22;1852.28;;;999.90;;
7239;SDS011;3661;53.288;10.458;2023-07-30T00:35:54;1825.82;;;999.90;;
7239;SDS011;3661;53.288;10.458;2023-07-30T00:38:29;1837.07;;;999.90;;
7239;SDS011;3661;53.288;10.458;2023-07-30T00:41:02;1829.43;;;999.90;;
7239;SDS011;3661;53.288;10.458;2023-07-30T00:43:34;1824.70;;;999.90;;
7239;SDS011;3661;53.288;10.458;2023-07-30T00:46:08;1837.07;;;999.90;;
7239;SDS011;3661;53.288;10.458;2023-07-30T00:48:41;1862.13;;;999.90;;
7239;SDS011;3661;53.288;10.458;2023-07-30T00:51:15;1848.10;;;999.90;;
7239;SDS011;3661;53.288;10.458;2023-07-30T00:53:50;1836.28;;;999.90;;
7239;SDS011;3661;53.288;10.458;2023-07-30T00:56:23;1857.00;;;999.90;;
7239;SDS011;3661;53.288;10.458;2023-07-30T00:58:55;1846.78;;;999.90;;
7239;SDS011;3661;53.288;10.458;2023-07-30T01:01:28;1863.10;;;999.90;;
7239;SDS011;3661;53.288;10.458;2023-07-30T01:04:05;1842.50;;;999.90;;
7239;SDS011;3661;53.288;10.458;2023-07-30T01:06:37;1821.40;;;999.90;;
7239;SDS011;3661;53.288;10.458;2023-07-30T01:09:11;1849.65;;;999.90;;
7239;SDS011;3661;53.288;10.458;2023-07-30T01:11:43;1854.15;;;999.90;;
7239;SDS011;3661;53.288;10.458;2023-07-30T01:14:17;1831.60;;;999.90;;
7239;SDS011;3661;53.288;10.458;2023-07-30T01:16:51;1848.25;;;999.90;;
7239;SDS011;3661;53.288;10.458;2023-07-30T01:19:23;1828.45;;;999.90;;
7239;SDS011;3661;53.288;10.458;2023-07-30T01:21:57;1825.35;;;999.90;;
7239;SDS011;3661;53.288;10.458;2023-07-30T01:24:32;1803.50;;;999.90;;
7239;SDS011;3661;53.288;10.458;2023-07-30T01:27:05;1822.78;;;999.90;;
7239;SDS011;3661;53.288;10.458;2023-07-30T01:29:40;1816.60;;;999.90;;
7239;SDS011;3661;53.288;10.458;2023-07-30T01:32:16;1818.95;;;999.90;;
7239;SDS011;3661;53.288;10.458;2023-07-30T01:34:54;1801.50;;;999.90;;
7239;SDS011;3661;53.288;10.458;2023-07-30T01:37:29;1816.47;;;999.90;;
7239;SDS011;3661;53.288;10.458;2023-07-30T01:40:01;1816.40;;;999.90;;
7239;SDS011;3661;53.288;10.458;2023-07-30T01:42:35;1821.28;;;999.90;;
7239;SDS011;3661;53.288;10.458;2023-07-30T01:45:08;1806.93;;;999.90;;
7239;SDS011;3661;53.288;10.458;2023-07-30T01:47:40;1829.00;;;999.90;;
7239;SDS011;3661;53.288;10.458;2023-07-30T01:50:13;1833.13;;;999.90;;
7239;SDS011;3661;53.288;10.458;2023-07-30T01:52:47;1853.43;;;999.90;;
7239;SDS011;3661;53.288;10.458;2023-07-30T01:55:19;1824.55;;;999.90;;
7239;SDS011;3661;53.288;10.458;2023-07-30T01:57:53;1804.30;;;999.90;;
7239;SDS011;3661;53.288;10.458;2023-07-30T02:00:26;1814.40;;;999.90;;
7239;SDS011;3661;53.288;10.458;2023-07-30T02:03:00;1808.25;;;999.90;;
7239;SDS011;3661;53.288;10.458;2023-07-30T02:05:33;1806.93;;;999.90;;
7239;SDS011;3661;53.288;10.458;2023-07-30T02:08:07;1827.70;;;999.90;;
7239;SDS011;3661;53.288;10.458;2023-07-30T02:10:40;1815.75;;;999.90;;
7239;SDS011;3661;53.288;10.458;2023-07-30T02:13:12;1829.05;;;999.90;;
7239;SDS011;3661;53.288;10.458;2023-07-30T02:15:45;1826.70;;;999.90;;
7239;SDS011;3661;53.288;10.458;2023-07-30T02:18:20;1817.10;;;999.90;;
7239;SDS011;3661;53.288;10.458;2023-07-30T02:20:53;1830.68;;;999.90;;
7239;SDS011;3661;53.288;10.458;2023-07-30T02:23:27;1805.60;;;999.90;;
7239;SDS011;3661;53.288;10.458;2023-07-30T02:26:00;1810.70;;;999.90;;
7239;SDS011;3661;53.288;10.458;2023-07-30T02:28:33;1823.80;;;999.90;;
7239;SDS011;3661;53.288;10.458;2023-07-30T02:31:05;1809.82;;;999.90;;
7239;SDS011;3661;53.288;10.458;2023-07-30T02:33:41;1813.95;;;999.90;;
7239;SDS011;3661;53.288;10.458;2023-07-30T02:36:13;1833.85;;;999.90;;
7239;SDS011;3661;53.288;10.458;2023-07-30T02:38:48;1809.40;;;999.90;;
7239;SDS011;3661;53.288;10.458;2023-07-30T02:41:20;1821.07;;;999.90;;
7239;SDS011;3661;53.288;10.458;2023-07-30T02:43:53;1805.75;;;999.90;;
7239;SDS011;3661;53.288;10.458;2023-07-30T02:46:25;1826.17;;;999.90;;
7239;SDS011;3661;53.288;10.458;2023-07-30T02:48:57;1834.00;;;999.90;;
7239;SDS011;3661;53.288;10.458;2023-07-30T02:51:30;1818.60;;;999.90;;
7239;SDS011;3661;53.288;10.458;2023-07-30T02:54:05;1784.78;;;999.90;;
7239;SDS011;3661;53.288;10.458;2023-07-30T02:56:40;1814.50;;;999.90;;
7239;SDS011;3661;53.288;10.458;2023-07-30T02:59:12;1821.65;;;999.90;;
7239;SDS011;3661;53.288;10.458;2023-07-30T03:01:44;1816.32;;;999.90;;
7239;SDS011;3661;53.288;10.458;2023-07-30T03:04:17;1794.32;;;999.90;;
7239;SDS011;3661;53.288;10.458;2023-07-30T03:06:49;1796.25;;;999.90;;
7239;SDS011;3661;53.288;10.458;2023-07-30T03:09:22;1824.90;;;999.90;;
7239;SDS011;3661;53.288;10.458;2023-07-30T03:11:55;1845.73;;;999.90;;
7239;SDS011;3661;53.288;10.458;2023-07-30T03:14:27;1814.20;;;999.90;;
7239;SDS011;3661;53.288;10.458;2023-07-30T03:17:03;1817.07;;;999.90;;
7239;SDS011;3661;53.288;10.458;2023-07-30T03:19:35;1822.82;;;999.90;;
7239;SDS011;3661;53.288;10.458;2023-07-30T03:22:08;1814.38;;;999.90;;
7239;SDS011;3661;53.288;10.458;2023-07-30T03:24:43;1827.17;;;999.90;;
7239;SDS011;3661;53.288;10.458;2023-07-30T03:27:17;1812.00;;;999.90;;
7239;SDS011;3661;53.288;10.458;2023-07-30T03:29:50;1805.88;;;999.90;;
7239;SDS011;3661;53.288;10.458;2023-07-30T03:32:23;1806.20;;;999.90;;
7239;SDS011;3661;53.288;10.458;2023-07-30T03:34:57;1800.38;;;999.90;;
7239;SDS011;3661;53.288;10.458;2023-07-30T03:37:29;1816.03;;;999.90;;
7239;SDS011;3661;53.288;10.458;2023-07-30T03:40:04;1816.67;;;999.90;;
7239;SDS011;3661;53.288;10.458;2023-07-30T03:42:37;1827.22;;;999.90;;
7239;SDS011;3661;53.288;10.458;2023-07-30T03:45:10;1819.77;;;999.90;;
7239;SDS011;3661;53.288;10.458;2023-07-30T03:47:42;1810.15;;;999.90;;
7239;SDS011;3661;53.288;10.458;2023-07-30T03:50:17;1814.88;;;999.90;;
7239;SDS011;3661;53.288;10.458;2023-07-30T03:52:50;1822.80;;;999.90;;
7239;SDS011;3661;53.288;10.458;2023-07-30T03:55:26;1800.55;;;999.90;;
7239;SDS011;3661;53.288;10.458;2023-07-30T03:57:58;1806.65;;;999.90;;
7239;SDS011;3661;53.288;10.458;2023-07-30T04:00:31;1806.85;;;999.90;;
7239;SDS011;3661;53.288;10.458;2023-07-30T04:03:04;1816.90;;;999.90;;
7239;SDS011;3661;53.288;10.458;2023-07-30T04:05:37;1794.97;;;999.90;;
7239;SDS011;3661;53.288;10.458;2023-07-30T04:08:10;1818.68;;;999.90;;
7239;SDS011;3661;53.288;10.458;2023-07-30T04:10:47;1817.82;;;999.90;;
7239;SDS011;3661;53.288;10.458;2023-07-30T04:13:19;1827.47;;;999.90;;
7239;SDS011;3661;53.288;10.458;2023-07-30T04:15:53;1815.82;;;999.90;;
7239;SDS011;3661;53.288;10.458;2023-07-30T04:18:25;1799.18;;;999.90;;
7239;SDS011;3661;53.288;10.458;2023-07-30T04:20:58;1810.57;;;999.90;;
7239;SDS011;3661;53.288;10.458;2023-07-30T04:23:31;1813.05;;;999.90;;
7239;SDS011;3661;53.288;10.458;2023-07-30T04:26:05;1793.97;;;999.90;;
7239;SDS011;3661;53.288;10.458;2023-07-30T04:28:37;1790.40;;;999.90;;
7239;SDS011;3661;53.288;10.458;2023-07-30T04:31:09;1815.75;;;999.90;;
7239;SDS011;3661;53.288;10.458;2023-07-30T04:33:43;1822.82;;;999.90;;
7239;SDS011;3661;53.288;10.458;2023-07-30T04:36:16;1811.43;;;999.90;;
7239;SDS011;3661;53.288;10.458;2023-07-30T04:38:49;1821.43;;;999.90;;
7239;SDS011;3661;53.288;10.458;2023-07-30T04:41:25;1806.40;;;999.90;;
7239;SDS011;3661;53.288;10.458;2023-07-30T04:43:57;1810.20;;;999.90;;
7239;SDS011;3661;53.288;10.458;2023-07-30T04:46:30;1827.40;;;999.90;;
7239;SDS011;3661;53.288;10.458;2023-07-30T04:49:03;1812.05;;;999.90;;
7239;SDS011;3661;53.288;10.458;2023-07-30T04:51:42;1809.10;;;999.90;;
7239;SDS011;3661;53.288;10.458;2023-07-30T04:54:15;1820.28;;;999.90;;
7239;SDS011;3661;53.288;10.458;2023-07-30T04:56:49;1812.68;;;999.90;;
7239;SDS011;3661;53.288;10.458;2023-07-30T04:59:21;1816.83;;;999.90;;
7239;SDS011;3661;53.288;10.458;2023-07-30T05:01:55;1818.15;;;999.90;;
7239;SDS011;3661;53.288;10.458;2023-07-30T05:04:28;1816.90;;;999.90;;
7239;SDS011;3661;53.288;10.458;2023-07-30T05:07:06;1813.25;;;999.90;;
7239;SDS011;3661;53.288;10.458;2023-07-30T05:09:38;1836.78;;;999.90;;
7239;SDS011;3661;53.288;10.458;2023-07-30T05:12:12;1814.97;;;999.90;;
7239;SDS011;3661;53.288;10.458;2023-07-30T05:14:44;1827.70;;;999.90;;
7239;SDS011;3661;53.288;10.458;2023-07-30T05:17:16;1840.28;;;999.90;;
7239;SDS011;3661;53.288;10.458;2023-07-30T05:19:49;1844.85;;;999.90;;
7239;SDS011;3661;53.288;10.458;2023-07-30T05:22:22;1847.35;;;999.90;;
7239;SDS011;3661;53.288;10.458;2023-07-30T05:24:55;1861.13;;;999.90;;
7239;SDS011;3661;53.288;10.458;2023-07-30T05:27:29;1860.25;;;999.90;;
7239;SDS011;3661;53.288;10.458;2023-07-30T05:30:02;1862.53;;;999.90;;
7239;SDS011;3661;53.288;10.458;2023-07-30T05:32:34;1869.47;;;999.90;;
7239;SDS011;3661;53.288;10.458;2023-07-30T05:35:08;1881.00;;;999.90;;
7239;SDS011;3661;53.288;10.458;2023-07-30T05:37:40;1899.57;;;999.90;;
7239;SDS011;3661;53.288;10.458;2023-07-30T05:40:13;1873.82;;;999.90;;
7239;SDS011;3661;53.288;10.458;2023-07-30T05:42:47;1873.10;;;999.90;;
7239;SDS011;3661;53.288;10.458;2023-07-30T05:45:20;1890.65;;;999.90;;
7239;SDS011;3661;53.288;10.458;2023-07-30T05:47:52;1886.40;;;999.90;;
7239;SDS011;3661;53.288;10.458;2023-07-30T05:50:25;1880.70;;;999.90;;
7239;SDS011;3661;53.288;10.458;2023-07-30T05:52:57;1894.93;;;999.90;;
7239;SDS011;3661;53.288;10.458;2023-07-30T05:55:29;1901.00;;;999.90;;
7239;SDS011;3661;53.288;10.458;2023-07-30T05:58:03;1920.05;;;999.90;;
7239;SDS011;3661;53.288;10.458;2023-07-30T06:00:38;1919.35;;;999.90;;
7239;SDS011;3661;53.288;10.458;2023-07-30T06:03:11;1899.40;;;999.90;;
7239;SDS011;3661;53.288;10.458;2023-07-30T06:05:43;1900.18;;;999.90;;
7239;SDS011;3661;53.288;10.458;2023-07-30T06:08:15;1912.93;;;999.90;;
7239;SDS011;3661;53.288;10.458;2023-07-30T06:10:48;1903.47;;;999.90;;
7239;SDS011;3661;53.288;10.458;2023-07-30T06:13:24;1931.63;;;999.90;;
7239;SDS011;3661;53.288;10.458;2023-07-30T06:15:56;1927.97;;;999.90;;
7239;SDS011;3661;53.288;10.458;2023-07-30T06:18:28;1920.53;;;999.90;;
7239;SDS011;3661;53.288;10.458;2023-07-30T06:21:00;1938.43;;;999.90;;
7239;SDS011;3661;53.288;10.458;2023-07-30T06:23:32;1941.50;;;999.90;;
7239;SDS011;3661;53.288;10.458;2023-07-30T06:26:04;1942.80;;;999.90;;
7239;SDS011;3661;53.288;10.458;2023-07-30T06:28:38;1924.05;;;999.90;;
7239;SDS011;3661;53.288;10.458;2023-07-30T06:31:11;1931.00;;;999.90;;
7239;SDS011;3661;53.288;10.458;2023-07-30T06:33:44;1939.57;;;999.90;;
7239;SDS011;3661;53.288;10.458;2023-07-30T06:36:16;1941.22;;;999.90;;
7239;SDS011;3661;53.288;10.458;2023-07-30T06:38:48;1951.25;;;999.90;;
7239;SDS011;3661;53.288;10.458;2023-07-30T06:41:20;1930.32;;;999.90;;
7239;SDS011;3661;53.288;10.458;2023-07-30T06:43:54;1942.35;;;999.90;;
7239;SDS011;3661;53.288;10.458;2023-07-30T06:46:32;1938.80;;;999.90;;
7239;SDS011;3661;53.288;10.458;2023-07-30T06:49:05;1940.40;;;999.90;;
7239;SDS011;3661;53.288;10.458;2023-07-30T06:51:37;1916.40;;;999.90;;
7239;SDS011;3661;53.288;10.458;2023-07-30T06:54:09;1944.75;;;999.90;;
7239;SDS011;3661;53.288;10.458;2023-07-30T06:56:42;1949.68;;;999.90;;
7239;SDS011;3661;53.288;10.458;2023-07-30T06:59:16;1955.43;;;999.90;;
7239;SDS011;3661;53.288;10.458;2023-07-30T07:01:48;1976.00;;;999.90;;
7239;SDS011;3661;53.288;10.458;2023-07-30T07:04:20;1965.95;;;999.90;;
7239;SDS011;3661;53.288;10.458;2023-07-30T07:06:52;1960.38;;;999.90;;
7239;SDS011;3661;53.288;10.458;2023-07-30T07:09:24;1974.88;;;999.90;;
7239;SDS011;3661;53.288;10.458;2023-07-30T07:11:57;1955.55;;;999.90;;
7239;SDS011;3661;53.288;10.458;2023-07-30T07:14:31;1966.30;;;999.90;;
7239;SDS011;3661;53.288;10.458;2023-07-30T07:17:04;1954.35;;;999.90;;
7239;SDS011;3661;53.288;10.458;2023-07-30T07:19:36;1959.68;;;999.90;;
7239;SDS011;3661;53.288;10.458;2023-07-30T07:22:08;1984.75;;;999.90;;
7239;SDS011;3661;53.288;10.458;2023-07-30T07:24:40;1966.65;;;999.90;;
7239;SDS011;3661;53.288;10.458;2023-07-30T07:27:12;1961.55;;;999.90;;
7239;SDS011;3661;53.288;10.458;2023-07-30T07:29:46;1993.93;;;999.90;;
7239;SDS011;3661;53.288;10.458;2023-07-30T07:32:18;1987.43;;;999.90;;
7239;SDS011;3661;53.288;10.458;2023-07-30T07:34:50;1999.35;;;999.90;;
7239;SDS011;3661;53.288;10.458;2023-07-30T07:37:22;1992.18;;;999.90;;
7239;SDS011;3661;53.288;10.458;2023-07-30T07:39:54;1998.47;;;999.90;;
7239;SDS011;3661;53.288;10.458;2023-07-30T07:42:27;1999.90;;;999.90;;
7239;SDS011;3661;53.288;10.458;2023-07-30T07:45:00;1999.90;;;999.90;;
7239;SDS011;3661;53.288;10.458;2023-07-30T07:47:32;1999.90;;;999.90;;
7239;SDS011;3661;53.288;10.458;2023-07-30T07:50:05;1999.90;;;999.90;;
7239;SDS011;3661;53.288;10.458;2023-07-30T07:52:39;1999.90;;;999.90;;
7239;SDS011;3661;53.288;10.458;2023-07-30T07:55:11;1999.90;;;999.90;;
7239;SDS011;3661;53.288;10.458;2023-07-30T07:57:43;1999.90;;;999.90;;
7239;SDS011;3661;53.288;10.458;2023-07-30T08:00:18;1999.90;;;999.90;;
7239;SDS011;3661;53.288;10.458;2023-07-30T08:02:50;1999.90;;;999.90;;
7239;SDS011;3661;53.288;10.458;2023-07-30T08:05:22;1999.90;;;999.90;;
7239;SDS011;3661;53.288;10.458;2023-07-30T08:07:55;1999.90;;;999.90;;
7239;SDS011;3661;53.288;10.458;2023-07-30T08:10:27;1999.90;;;999.90;;
7239;SDS011;3661;53.288;10.458;2023-07-30T08:12:59;1999.90;;;999.90;;
7239;SDS011;3661;53.288;10.458;2023-07-30T08:15:33;1999.90;;;999.90;;
7239;SDS011;3661;53.288;10.458;2023-07-30T08:18:06;1999.90;;;999.90;;
7239;SDS011;3661;53.288;10.458;2023-07-30T08:20:38;1999.90;;;999.90;;
7239;SDS011;3661;53.288;10.458;2023-07-30T08:23:10;1999.90;;;999.90;;
7239;SDS011;3661;53.288;10.458;2023-07-30T08:25:42;1999.90;;;999.90;;
7239;SDS011;3661;53.288;10.458;2023-07-30T08:28:14;1999.90;;;999.90;;
7239;SDS011;3661;53.288;10.458;2023-07-30T08:30:47;1999.90;;;999.90;;
7239;SDS011;3661;53.288;10.458;2023-07-30T08:33:19;1999.90;;;999.90;;
7239;SDS011;3661;53.288;10.458;2023-07-30T08:35:54;1999.90;;;999.90;;
7239;SDS011;3661;53.288;10.458;2023-07-30T08:38:27;1999.90;;;999.90;;
7239;SDS011;3661;53.288;10.458;2023-07-30T08:41:00;1999.90;;;999.90;;
7239;SDS011;3661;53.288;10.458;2023-07-30T08:43:32;1999.90;;;999.90;;
7239;SDS011;3661;53.288;10.458;2023-07-30T08:46:07;1999.90;;;999.90;;
7239;SDS011;3661;53.288;10.458;2023-07-30T08:48:39;1999.90;;;999.90;;
7239;SDS011;3661;53.288;10.458;2023-07-30T08:51:11;1999.90;;;999.90;;
7239;SDS011;3661;53.288;10.458;2023-07-30T08:53:45;1999.90;;;999.90;;
7239;SDS011;3661;53.288;10.458;2023-07-30T08:56:18;1999.90;;;999.90;;
7239;SDS011;3661;53.288;10.458;2023-07-30T08:58:51;1999.90;;;999.90;;
7239;SDS011;3661;53.288;10.458;2023-07-30T09:01:29;1999.90;;;999.90;;
7239;SDS011;3661;53.288;10.458;2023-07-30T09:04:06;1999.90;;;999.90;;
7239;SDS011;3661;53.288;10.458;2023-07-30T09:06:39;1999.90;;;999.90;;
7239;SDS011;3661;53.288;10.458;2023-07-30T09:09:11;1999.90;;;999.90;;
7239;SDS011;3661;53.288;10.458;2023-07-30T09:11:50;1999.90;;;999.90;;
7239;SDS011;3661;53.288;10.458;2023-07-30T09:14:23;1999.90;;;999.90;;
7239;SDS011;3661;53.288;10.458;2023-07-30T09:16:59;1999.90;;;999.90;;
7239;SDS011;3661;53.288;10.458;2023-07-30T09:19:34;1999.90;;;999.90;;
7239;SDS011;3661;53.288;10.458;2023-07-30T09:22:06;1999.90;;;999.90;;
7239;SDS011;3661;53.288;10.458;2023-07-30T09:24:41;1999.90;;;999.90;;
7239;SDS011;3661;53.288;10.458;2023-07-30T09:27:19;1999.90;;;999.90;;
7239;SDS011;3661;53.288;10.458;2023-07-30T09:29:58;1999.90;;;999.90;;
7239;SDS011;3661;53.288;10.458;2023-07-30T09:32:33;1999.90;;;999.90;;
7239;SDS011;3661;53.288;10.458;2023-07-30T09:35:06;1999.90;;;999.90;;
7239;SDS011;3661;53.288;10.458;2023-07-30T09:37:40;1999.90;;;999.90;;
7239;SDS011;3661;53.288;10.458;2023-07-30T09:40:13;1999.90;;;999.90;;
7239;SDS011;3661;53.288;10.458;2023-07-30T09:42:46;1999.90;;;999.90;;
7239;SDS011;3661;53.288;10.458;2023-07-30T09:45:21;1999.90;;;999.90;;
7239;SDS011;3661;53.288;10.458;2023-07-30T09:47:55;1999.90;;;999.90;;
7239;SDS011;3661;53.288;10.458;2023-07-30T09:50:27;1999.90;;;999.90;;
7239;SDS011;3661;53.288;10.458;2023-07-30T09:53:01;1999.90;;;999.90;;
7239;SDS011;3661;53.288;10.458;2023-07-30T09:55:34;1999.90;;;999.90;;
7239;SDS011;3661;53.288;10.458;2023-07-30T09:58:07;1999.90;;;999.90;;
7239;SDS011;3661;53.288;10.458;2023-07-30T10:00:41;1999.90;;;999.90;;
7239;SDS011;3661;53.288;10.458;2023-07-30T10:03:16;1999.90;;;999.90;;
7239;SDS011;3661;53.288;10.458;2023-07-30T10:05:49;1999.90;;;999.90;;
7239;SDS011;3661;53.288;10.458;2023-07-30T10:08:25;1999.90;;;999.90;;
7239;SDS011;3661;53.288;10.458;2023-07-30T10:10:59;1999.90;;;999.90;;
7239;SDS011;3661;53.288;10.458;2023-07-30T10:13:34;1999.90;;;999.90;;
7239;SDS011;3661;53.288;10.458;2023-07-30T10:16:09;1999.90;;;999.90;;
7239;SDS011;3661;53.288;10.458;2023-07-30T10:18:43;1999.90;;;999.90;;
7239;SDS011;3661;53.288;10.458;2023-07-30T10:21:21;1999.90;;;999.90;;
7239;SDS011;3661;53.288;10.458;2023-07-30T10:23:58;1999.90;;;999.90;;
7239;SDS011;3661;53.288;10.458;2023-07-30T10:26:32;1999.90;;;999.90;;
7239;SDS011;3661;53.288;10.458;2023-07-30T10:29:10;1999.90;;;999.90;;
7239;SDS011;3661;53.288;10.458;2023-07-30T10:31:48;1999.90;;;999.90;;
7239;SDS011;3661;53.288;10.458;2023-07-30T10:34:25;1999.90;;;999.90;;
7239;SDS011;3661;53.288;10.458;2023-07-30T10:36:58;1999.90;;;999.90;;
7239;SDS011;3661;53.288;10.458;2023-07-30T10:39:31;1999.90;;;999.90;;
7239;SDS011;3661;53.288;10.458;2023-07-30T10:42:05;1999.90;;;999.90;;
7239;SDS011;3661;53.288;10.458;2023-07-30T10:44:38;1999.90;;;999.90;;
7239;SDS011;3661;53.288;10.458;2023-07-30T10:47:15;1999.90;;;999.90;;
7239;SDS011;3661;53.288;10.458;2023-07-30T10:49:51;1999.90;;;999.90;;
7239;SDS011;3661;53.288;10.458;2023-07-30T10:52:24;1999.90;;;999.90;;
7239;SDS011;3661;53.288;10.458;2023-07-30T10:54:59;1999.90;;;999.90;;
7239;SDS011;3661;53.288;10.458;2023-07-30T10:57:32;1999.90;;;999.90;;
7239;SDS011;3661;53.288;10.458;2023-07-30T11:00:04;1999.90;;;999.90;;
7239;SDS011;3661;53.288;10.458;2023-07-30T11:02:37;1999.90;;;999.90;;
7239;SDS011;3661;53.288;10.458;2023-07-30T11:05:14;1999.90;;;999.90;;
7239;SDS011;3661;53.288;10.458;2023-07-30T11:07:50;1999.90;;;999.90;;
7239;SDS011;3661;53.288;10.458;2023-07-30T11:10:22;1999.90;;;999.90;;
7239;SDS011;3661;53.288;10.458;2023-07-30T11:12:55;1999.90;;;999.90;;
7239;SDS011;3661;53.288;10.458;2023-07-30T11:15:29;1999.90;;;999.90;;
7239;SDS011;3661;53.288;10.458;2023-07-30T11:18:01;1999.90;;;999.90;;
7239;SDS011;3661;53.288;10.458;2023-07-30T11:20:35;1999.90;;;999.90;;
7239;SDS011;3661;53.288;10.458;2023-07-30T11:23:17;1999.90;;;999.90;;
7239;SDS011;3661;53.288;10.458;2023-07-30T11:25:50;1999.90;;;999.90;;
7239;SDS011;3661;53.288;10.458;2023-07-30T11:28:29;1999.90;;;999.90;;
7239;SDS011;3661;53.288;10.458;2023-07-30T11:31:02;1999.90;;;999.90;;
7239;SDS011;3661;53.288;10.458;2023-07-30T11:33:39;1999.90;;;999.90;;
7239;SDS011;3661;53.288;10.458;2023-07-30T11:36:15;1999.90;;;999.90;;
7239;SDS011;3661;53.288;10.458;2023-07-30T11:38:48;1999.90;;;999.90;;
7239;SDS011;3661;53.288;10.458;2023-07-30T11:41:23;1999.90;;;999.90;;
7239;SDS011;3661;53.288;10.458;2023-07-30T11:43:56;1999.90;;;999.90;;
7239;SDS011;3661;53.288;10.458;2023-07-30T11:46:28;1999.90;;;999.90;;
7239;SDS011;3661;53.288;10.458;2023-07-30T11:49:12;1999.90;;;999.90;;
7239;SDS011;3661;53.288;10.458;2023-07-30T11:51:48;1999.90;;;999.90;;
7239;SDS011;3661;53.288;10.458;2023-07-30T11:54:21;1999.90;;;999.90;;
7239;SDS011;3661;53.288;10.458;2023-07-30T11:56:54;1999.90;;;999.90;;
7239;SDS011;3661;53.288;10.458;2023-07-30T11:59:26;1999.90;;;999.90;;
7239;SDS011;3661;53.288;10.458;2023-07-30T12:02:04;1999.90;;;999.90;;
7239;SDS011;3661;53.288;10.458;2023-07-30T12:04:43;1999.90;;;999.90;;
7239;SDS011;3661;53.288;10.458;2023-07-30T12:07:23;1999.90;;;999.90;;
7239;SDS011;3661;53.288;10.458;2023-07-30T12:10:05;1999.90;;;999.90;;
7239;SDS011;3661;53.288;10.458;2023-07-30T12:12:43;1999.90;;;999.90;;
7239;SDS011;3661;53.288;10.458;2023-07-30T12:15:16;1999.90;;;999.90;;
7239;SDS011;3661;53.288;10.458;2023-07-30T12:17:48;1999.90;;;999.90;;
7239;SDS011;3661;53.288;10.458;2023-07-30T12:20:20;1999.90;;;999.90;;
7239;SDS011;3661;53.288;10.458;2023-07-30T12:22:54;1999.90;;;999.90;;
7239;SDS011;3661;53.288;10.458;2023-07-30T12:25:26;1999.90;;;999.90;;
7239;SDS011;3661;53.288;10.458;2023-07-30T12:27:59;1999.90;;;999.90;;
7239;SDS011;3661;53.288;10.458;2023-07-30T12:30:32;1999.90;;;999.90;;
7239;SDS011;3661;53.288;10.458;2023-07-30T12:33:05;1999.90;;;999.90;;
7239;SDS011;3661;53.288;10.458;2023-07-30T12:35:38;1999.90;;;999.90;;
7239;SDS011;3661;53.288;10.458;2023-07-30T12:38:14;1999.90;;;999.90;;
7239;SDS011;3661;53.288;10.458;2023-07-30T12:40:46;1999.90;;;999.90;;
7239;SDS011;3661;53.288;10.458;2023-07-30T12:43:18;1999.90;;;999.90;;
7239;SDS011;3661;53.288;10.458;2023-07-30T12:45:51;1999.90;;;999.90;;
7239;SDS011;3661;53.288;10.458;2023-07-30T12:48:23;1999.90;;;999.90;;
7239;SDS011;3661;53.288;10.458;2023-07-30T12:50:56;1999.90;;;999.90;;
7239;SDS011;3661;53.288;10.458;2023-07-30T12:53:29;1999.90;;;999.90;;
7239;SDS011;3661;53.288;10.458;2023-07-30T12:56:02;1999.90;;;999.90;;
7239;SDS011;3661;53.288;10.458;2023-07-30T12:58:34;1999.90;;;999.90;;
7239;SDS011;3661;53.288;10.458;2023-07-30T13:01:07;1999.90;;;999.90;;
7239;SDS011;3661;53.288;10.458;2023-07-30T13:03:39;1999.90;;;999.90;;
7239;SDS011;3661;53.288;10.458;2023-07-30T13:06:20;1999.90;;;999.90;;
7239;SDS011;3661;53.288;10.458;2023-07-30T13:08:53;1999.90;;;999.90;;
7239;SDS011;3661;53.288;10.458;2023-07-30T13:11:26;1999.90;;;999.90;;
7239;SDS011;3661;53.288;10.458;2023-07-30T13:13:58;1999.90;;;999.90;;
7239;SDS011;3661;53.288;10.458;2023-07-30T13:16:30;1999.90;;;999.90;;
7239;SDS011;3661;53.288;10.458;2023-07-30T13:19:02;1999.90;;;999.90;;
7239;SDS011;3661;53.288;10.458;2023-07-30T13:21:34;1999.90;;;999.90;;
7239;SDS011;3661;53.288;10.458;2023-07-30T13:24:08;1999.90;;;999.90;;
7239;SDS011;3661;53.288;10.458;2023-07-30T13:26:40;1999.90;;;999.90;;
7239;SDS011;3661;53.288;10.458;2023-07-30T13:29:12;1999.90;;;999.90;;
7239;SDS011;3661;53.288;10.458;2023-07-30T13:31:46;1999.90;;;999.90;;
7239;SDS011;3661;53.288;10.458;2023-07-30T13:34:18;1999.90;;;999.90;;
7239;SDS011;3661;53.288;10.458;2023-07-30T13:36:50;1999.90;;;999.90;;
7239;SDS011;3661;53.288;10.458;2023-07-30T13:39:24;1999.90;;;999.90;;
7239;SDS011;3661;53.288;10.458;2023-07-30T13:41:56;1999.90;;;999.90;;
7239;SDS011;3661;53.288;10.458;2023-07-30T13:44:28;1999.90;;;999.90;;
7239;SDS011;3661;53.288;10.458;2023-07-30T13:47:00;1999.90;;;999.90;;
7239;SDS011;3661;53.288;10.458;2023-07-30T13:49:34;1999.90;;;999.90;;
7239;SDS011;3661;53.288;10.458;2023-07-30T13:52:07;1999.90;;;999.90;;
7239;SDS011;3661;53.288;10.458;2023-07-30T13:54:40;1999.90;;;999.90;;
7239;SDS011;3661;53.288;10.458;2023-07-30T13:57:21;1999.90;;;999.90;;
7239;SDS011;3661;53.288;10.458;2023-07-30T13:59:54;1999.90;;;999.90;;
7239;SDS011;3661;53.288;10.458;2023-07-30T14:02:29;1999.90;;;999.90;;
7239;SDS011;3661;53.288;10.458;2023-07-30T14:05:05;1999.90;;;999.90;;
7239;SDS011;3661;53.288;10.458;2023-07-30T14:07:38;1999.90;;;999.90;;
7239;SDS011;3661;53.288;10.458;2023-07-30T14:10:44;1999.90;;;999.90;;
7239;SDS011;3661;53.288;10.458;2023-07-30T14:13:46;1999.90;;;999.90;;
7239;SDS011;3661;53.288;10.458;2023-07-30T14:20:10;1999.90;;;999.90;;
7239;SDS011;3661;53.288;10.458;2023-07-30T14:33:27;1999.90;;;999.90;;
7239;SDS011;3661;53.288;10.458;2023-07-30T14:39:25;1999.90;;;999.90;;
7239;SDS011;3661;53.288;10.458;2023-07-30T14:45:24;1999.90;;;999.90;;
7239;SDS011;3661;53.288;10.458;2023-07-30T14:51:25;1999.90;;;999.90;;
7239;SDS011;3661;53.288;10.458;2023-07-30T14:57:24;1999.90;;;999.90;;
7239;SDS011;3661;53.288;10.458;2023-07-30T15:03:22;1999.90;;;999.90;;